Time;durP1;ratioP1;P1;durP2;ratioP2;P2;SDS_P1;SDS_P2;PMS_P1;PMS_P2;Temp;Humidity;BMP_temperature;BMP_pressure;BME280_temperature;BME280_humidity;BME280_pressure;Samples;Min_cycle;Max_cycle;Signal;HPM_P1;HPM_P2
2022/07/18 00:02:10;;;;;;;8.15;4.00;;;;;;;;;;5089174;28;20024;-72
2022/07/18 00:04:47;;;;;;;4.93;4.35;;;;;;;;;;5108237;27;20582;-72
2022/07/18 00:07:16;;;;;;;7.00;4.10;;;;;;;;;;5089466;28;20032;-72
2022/07/18 00:09:45;;;;;;;6.40;4.50;;;;;;;;;;5088603;28;20032;-72
2022/07/18 00:12:13;;;;;;;8.82;4.25;;;;;;;;;;5088565;28;20031;-72
2022/07/18 00:14:42;;;;;;;6.90;4.28;;;;;;;;;;5088803;28;20020;-72
2022/07/18 00:17:11;;;;;;;6.28;4.35;;;;;;;;;;5089119;28;20038;-72
2022/07/18 00:19:39;;;;;;;6.20;4.40;;;;;;;;;;5088688;28;20017;-72
2022/07/18 00:22:16;;;;;;;4.97;4.50;;;;;;;;;;5069459;28;20504;-72
2022/07/18 00:24:45;;;;;;;5.25;4.75;;;;;;;;;;5051107;28;20051;-72
2022/07/18 00:27:22;;;;;;;6.93;4.40;;;;;;;;;;5106651;27;20625;-72
2022/07/18 00:29:50;;;;;;;4.88;4.40;;;;;;;;;;5106783;28;20028;-72
2022/07/18 00:32:19;;;;;;;6.90;4.95;;;;;;;;;;5106554;28;20020;-72
2022/07/18 00:34:56;;;;;;;11.63;4.53;;;;;;;;;;5127608;27;20685;-72
2022/07/18 00:37:25;;;;;;;6.10;4.30;;;;;;;;;;5110240;28;20038;-72
2022/07/18 00:39:54;;;;;;;7.97;4.50;;;;;;;;;;5109524;28;20027;-73
2022/07/18 00:42:23;;;;;;;7.13;4.95;;;;;;;;;;5109496;28;20020;-72
2022/07/18 00:44:55;;;;;;;5.50;4.85;;;;;;;;;;5108795;28;20392;-72
2022/07/18 00:47:24;;;;;;;6.78;4.82;;;;;;;;;;5109145;28;20518;-72
2022/07/18 00:49:52;;;;;;;5.07;4.55;;;;;;;;;;5108830;28;20400;-72
2022/07/18 00:52:21;;;;;;;5.97;4.30;;;;;;;;;;5109420;28;20020;-72
2022/07/18 00:54:50;;;;;;;5.25;4.75;;;;;;;;;;5108833;28;20042;-72
2022/07/18 00:57:18;;;;;;;5.65;4.45;;;;;;;;;;5108782;28;20024;-72
2022/07/18 01:02:35;;;;;;;6.75;4.55;;;;;;;;;;5108491;28;20015;-72
2022/07/18 01:05:04;;;;;;;7.28;4.75;;;;;;;;;;5108651;28;20016;-72
2022/07/18 01:07:34;;;;;;;6.43;4.60;;;;;;;;;;5108402;28;20067;-73
2022/07/18 01:10:11;;;;;;;7.03;5.25;;;;;;;;;;5109858;27;20963;-72
2022/07/18 01:12:40;;;;;;;7.38;4.78;;;;;;;;;;5092301;28;20032;-72
2022/07/18 01:15:09;;;;;;;7.30;5.10;;;;;;;;;;5090445;28;20028;-72
2022/07/18 01:17:37;;;;;;;6.55;5.60;;;;;;;;;;5090448;28;20034;-72
2022/07/18 01:20:06;;;;;;;8.18;5.18;;;;;;;;;;5087559;28;20013;-72
2022/07/18 01:22:35;;;;;;;5.70;4.50;;;;;;;;;;5090820;28;20481;-72
2022/07/18 01:25:04;;;;;;;6.95;5.53;;;;;;;;;;5091616;27;20036;-72
2022/07/18 01:27:33;;;;;;;6.40;5.60;;;;;;;;;;5090335;28;20036;-72
2022/07/18 01:30:03;;;;;;;6.07;5.47;;;;;;;;;;5090419;28;20040;-72
2022/07/18 01:32:32;;;;;;;6.22;5.63;;;;;;;;;;5090107;28;20488;-72
2022/07/18 01:35:08;;;;;;;10.00;5.70;;;;;;;;;;5085958;27;20126;-72
2022/07/18 01:37:37;;;;;;;9.70;5.45;;;;;;;;;;5088796;28;20021;-72
2022/07/18 01:40:10;;;;;;;6.95;5.70;;;;;;;;;;5087479;28;20034;-72
2022/07/18 01:42:47;;;;;;;6.38;5.75;;;;;;;;;;5070992;27;20906;-71
2022/07/18 01:45:16;;;;;;;8.90;5.45;;;;;;;;;;5069978;28;20040;-72
2022/07/18 01:47:45;;;;;;;6.53;5.82;;;;;;;;;;5069760;28;20033;-72
2022/07/18 01:50:14;;;;;;;6.07;5.47;;;;;;;;;;5070017;28;20037;-72
2022/07/18 01:52:43;;;;;;;10.18;6.07;;;;;;;;;;5068259;28;20029;-72
2022/07/18 01:55:12;;;;;;;6.80;5.32;;;;;;;;;;5069234;28;20050;-72
2022/07/18 01:57:40;;;;;;;7.13;5.38;;;;;;;;;;5069740;28;20024;-72
2022/07/18 02:00:10;;;;;;;5.75;5.25;;;;;;;;;;5070081;28;20035;-72
2022/07/18 02:02:49;;;;;;;5.93;5.32;;;;;;;;;;5066184;28;20537;-72
2022/07/18 02:05:18;;;;;;;7.47;5.43;;;;;;;;;;5061421;28;20040;-72
2022/07/18 02:07:47;;;;;;;7.25;5.93;;;;;;;;;;5048717;28;20042;-72
2022/07/18 02:10:17;;;;;;;6.07;5.47;;;;;;;;;;5052360;28;20026;-72
2022/07/18 02:12:55;;;;;;;9.35;6.22;;;;;;;;;;5051049;27;20392;-73
2022/07/18 02:15:24;;;;;;;8.63;5.97;;;;;;;;;;5050133;28;20021;-72
2022/07/18 02:17:53;;;;;;;7.22;6.03;;;;;;;;;;5049886;28;20029;-72
2022/07/18 02:20:22;;;;;;;13.85;5.88;;;;;;;;;;5049649;28;20492;-72
2022/07/18 02:22:50;;;;;;;9.60;5.80;;;;;;;;;;5050185;28;20029;-72
2022/07/18 02:25:19;;;;;;;5.90;5.30;;;;;;;;;;5048993;28;20035;-72
2022/07/18 02:27:48;;;;;;;7.63;5.80;;;;;;;;;;5049680;28;20191;-72
2022/07/18 02:30:16;;;;;;;8.40;6.15;;;;;;;;;;5050134;28;20033;-72
2022/07/18 02:36:07;;;;;;;7.50;6.10;;;;;;;;;;6042686;23;20144;-71
2022/07/18 02:38:36;;;;;;;8.00;5.90;;;;;;;;;;5017123;23;20056;-71
2022/07/18 02:41:05;;;;;;;6.45;5.80;;;;;;;;;;4995711;28;20018;-72
2022/07/18 02:43:34;;;;;;;7.07;5.90;;;;;;;;;;4991737;28;20057;-72
2022/07/18 02:46:03;;;;;;;8.38;6.22;;;;;;;;;;4989960;28;20033;-72
2022/07/18 02:48:42;;;;;;;7.85;6.00;;;;;;;;;;5109983;27;20392;-72
2022/07/18 02:51:11;;;;;;;7.10;6.15;;;;;;;;;;5110070;28;20024;-72
2022/07/18 02:53:39;;;;;;;10.32;6.45;;;;;;;;;;5109610;28;20034;-72
2022/07/18 02:56:08;;;;;;;9.35;6.30;;;;;;;;;;5107396;28;20016;-72
2022/07/18 02:58:47;;;;;;;8.55;6.18;;;;;;;;;;5069439;28;20926;-72
2022/07/18 03:01:15;;;;;;;7.78;6.32;;;;;;;;;;5069265;28;20035;-72
2022/07/18 03:03:44;;;;;;;8.68;6.40;;;;;;;;;;5068164;28;20039;-72
2022/07/18 03:06:13;;;;;;;8.63;6.55;;;;;;;;;;5069571;28;20028;-72
2022/07/18 03:08:49;;;;;;;8.40;6.68;;;;;;;;;;5069297;28;20135;-72
2022/07/18 03:11:26;;;;;;;6.85;6.03;;;;;;;;;;5069235;28;20621;-72
2022/07/18 03:13:55;;;;;;;12.40;6.18;;;;;;;;;;5069329;28;20033;-72
2022/07/18 03:16:24;;;;;;;8.00;6.13;;;;;;;;;;5069746;28;20025;-72
2022/07/18 03:18:52;;;;;;;8.25;6.22;;;;;;;;;;5069611;28;20028;-72
2022/07/18 03:21:31;;;;;;;8.07;6.22;;;;;;;;;;5109930;27;20380;-72
2022/07/18 03:24:00;;;;;;;8.95;6.88;;;;;;;;;;5109548;28;20024;-72
2022/07/18 03:26:29;;;;;;;8.82;6.82;;;;;;;;;;5109886;28;20394;-72
2022/07/18 03:28:57;;;;;;;7.47;6.55;;;;;;;;;;5109831;28;20024;-72
2022/07/18 03:31:26;;;;;;;8.52;6.88;;;;;;;;;;5109618;28;20030;-72
2022/07/18 03:33:55;;;;;;;8.60;6.80;;;;;;;;;;5109780;28;20464;-71
2022/07/18 03:36:31;;;;;;;9.38;7.18;;;;;;;;;;5069918;28;20134;-72
2022/07/18 03:39:01;;;;;;;9.85;6.80;;;;;;;;;;5069321;28;20037;-72
2022/07/18 03:41:39;;;;;;;8.75;6.55;;;;;;;;;;5109960;27;20425;-71
2022/07/18 03:44:08;;;;;;;8.35;7.18;;;;;;;;;;5110055;28;20032;-71
2022/07/18 03:46:37;;;;;;;9.60;7.05;;;;;;;;;;5109844;28;20487;-72
2022/07/18 03:49:16;;;;;;;8.23;6.70;;;;;;;;;;5110060;27;20401;-72
2022/07/18 03:51:45;;;;;;;10.70;6.28;;;;;;;;;;5125544;28;20387;-72
2022/07/18 03:54:13;;;;;;;7.63;6.70;;;;;;;;;;5110131;28;20038;-72
2022/07/18 03:56:42;;;;;;;6.93;6.30;;;;;;;;;;5110013;28;20034;-71
2022/07/18 03:59:21;;;;;;;9.60;7.30;;;;;;;;;;5109854;27;20384;-72
2022/07/18 04:01:49;;;;;;;11.63;7.05;;;;;;;;;;5109984;28;20050;-72
2022/07/18 04:04:18;;;;;;;10.45;6.95;;;;;;;;;;5110398;28;20042;-71
2022/07/18 04:06:47;;;;;;;8.95;7.53;;;;;;;;;;5109916;28;20031;-72
2022/07/18 04:09:16;;;;;;;8.63;7.45;;;;;;;;;;5110059;28;20034;-72
2022/07/18 04:11:45;;;;;;;10.30;7.60;;;;;;;;;;5108588;28;20038;-72
2022/07/18 04:14:13;;;;;;;8.95;7.70;;;;;;;;;;5109437;28;20471;-72
2022/07/18 04:16:43;;;;;;;9.27;6.93;;;;;;;;;;5109647;28;20034;-72
2022/07/18 04:19:21;;;;;;;8.50;7.53;;;;;;;;;;5109852;27;20384;-72
2022/07/18 04:21:58;;;;;;;35.13;9.65;;;;;;;;;;5109771;27;20388;-72
2022/07/18 04:24:35;;;;;;;14.07;7.72;;;;;;;;;;5110205;27;20165;-72
2022/07/18 04:27:12;;;;;;;10.48;6.85;;;;;;;;;;5069719;28;20135;-72
2022/07/18 04:29:42;;;;;;;11.30;7.57;;;;;;;;;;5069291;28;20039;-72
2022/07/18 04:32:20;;;;;;;9.95;7.47;;;;;;;;;;5069613;28;20386;-72
2022/07/18 04:34:49;;;;;;;19.90;7.70;;;;;;;;;;5069379;28;20035;-72
2022/07/18 04:37:18;;;;;;;22.02;8.27;;;;;;;;;;5069316;28;20032;-71
2022/07/18 04:39:46;;;;;;;13.48;7.53;;;;;;;;;;5069217;28;20027;-72
2022/07/18 04:42:15;;;;;;;11.93;7.38;;;;;;;;;;5069311;28;20029;-72
2022/07/18 04:44:52;;;;;;;11.93;7.70;;;;;;;;;;5110099;27;20133;-72
2022/07/18 04:47:21;;;;;;;9.00;7.20;;;;;;;;;;5109824;28;20032;-72
2022/07/18 04:49:50;;;;;;;14.88;7.40;;;;;;;;;;5109585;28;20484;-72
2022/07/18 04:52:18;;;;;;;11.57;7.80;;;;;;;;;;5110378;28;20032;-71
2022/07/18 04:54:47;;;;;;;10.73;7.05;;;;;;;;;;5110318;28;20024;-72
2022/07/18 04:57:16;;;;;;;8.95;6.95;;;;;;;;;;5110013;28;20034;-72
2022/07/18 04:59:52;;;;;;;10.30;7.45;;;;;;;;;;5110189;27;20132;-72
2022/07/18 05:02:29;;;;;;;10.73;7.70;;;;;;;;;;5130690;27;20188;-72
2022/07/18 05:05:06;;;;;;;10.88;7.43;;;;;;;;;;5109840;27;20133;-72
2022/07/18 05:07:34;;;;;;;8.52;7.43;;;;;;;;;;5110065;28;20032;-72
2022/07/18 05:10:19;;;;;;;8.00;7.20;;;;;;;;;;5089612;27;20415;-72
2022/07/18 05:12:56;;;;;;;9.85;7.88;;;;;;;;;;5069491;28;20409;-72
2022/07/18 05:15:34;;;;;;;13.98;7.63;;;;;;;;;;5069419;28;20418;-72
2022/07/18 05:18:10;;;;;;;11.27;7.30;;;;;;;;;;5069423;28;20130;-72
2022/07/18 05:20:48;;;;;;;27.75;8.98;;;;;;;;;;5069215;28;20630;-72
2022/07/18 05:23:17;;;;;;;10.38;7.57;;;;;;;;;;5069417;28;20029;-72
2022/07/18 05:25:45;;;;;;;10.43;7.75;;;;;;;;;;5069625;28;20025;-72
2022/07/18 05:28:14;;;;;;;25.77;8.52;;;;;;;;;;5069282;28;20039;-72
2022/07/18 05:30:43;;;;;;;11.13;7.72;;;;;;;;;;5069180;28;20031;-72
2022/07/18 05:33:12;;;;;;;8.63;7.25;;;;;;;;;;5069146;28;20043;-72
2022/07/18 05:35:40;;;;;;;9.55;7.82;;;;;;;;;;5069139;28;20037;-72
2022/07/18 05:38:09;;;;;;;10.65;7.15;;;;;;;;;;5069122;28;20035;-72
2022/07/18 05:40:38;;;;;;;13.85;7.72;;;;;;;;;;5068681;28;20499;-72
2022/07/18 05:43:06;;;;;;;9.90;7.47;;;;;;;;;;5069028;28;20384;-71
2022/07/18 05:45:35;;;;;;;15.07;7.22;;;;;;;;;;5069309;28;20035;-72
2022/07/18 05:48:14;;;;;;;35.80;8.20;;;;;;;;;;5069152;28;20878;-72
2022/07/18 05:50:44;;;;;;;17.00;6.97;;;;;;;;;;5069450;28;20025;-72
2022/07/18 05:53:20;;;;;;;45.10;9.70;;;;;;;;;;5069487;28;20386;-72
2022/07/18 05:55:57;;;;;;;21.10;7.07;;;;;;;;;;5069541;28;20138;-72
2022/07/18 05:58:26;;;;;;;9.45;6.40;;;;;;;;;;5069745;28;20020;-72
2022/07/18 06:00:55;;;;;;;9.52;6.28;;;;;;;;;;5069269;28;20035;-72
2022/07/18 06:03:37;;;;;;;17.17;6.35;;;;;;;;;;5068928;28;20387;-72
2022/07/18 06:06:18;;;;;;;11.77;6.60;;;;;;;;;;5089663;27;20378;-72
2022/07/18 06:08:47;;;;;;;11.95;6.25;;;;;;;;;;5089615;28;20042;-72
2022/07/18 06:11:15;;;;;;;8.48;6.85;;;;;;;;;;5101781;28;20038;-69
2022/07/18 06:13:44;;;;;;;7.75;6.53;;;;;;;;;;5110272;28;20030;-69
2022/07/18 06:16:13;;;;;;;13.20;6.75;;;;;;;;;;5107944;28;20024;-69
2022/07/18 06:18:42;;;;;;;7.63;6.22;;;;;;;;;;5068570;28;20024;-69
2022/07/18 06:21:11;;;;;;;8.77;6.55;;;;;;;;;;5069056;28;20021;-69
2022/07/18 06:23:40;;;;;;;10.18;5.90;;;;;;;;;;5069073;28;20041;-69
2022/07/18 06:26:08;;;;;;;15.70;5.95;;;;;;;;;;5071374;28;20044;-69
2022/07/18 06:28:37;;;;;;;30.48;6.75;;;;;;;;;;5086284;28;20028;-70
2022/07/18 06:31:06;;;;;;;13.02;5.80;;;;;;;;;;5091434;28;20034;-67
2022/07/18 06:33:34;;;;;;;7.72;5.43;;;;;;;;;;5089538;28;20042;-69
2022/07/18 06:36:05;;;;;;;8.45;5.47;;;;;;;;;;5088877;28;20394;-69
2022/07/18 06:38:34;;;;;;;11.68;6.03;;;;;;;;;;5105919;28;20054;-69
2022/07/18 06:41:03;;;;;;;7.93;6.50;;;;;;;;;;5085757;28;20028;-70
2022/07/18 06:43:31;;;;;;;9.45;5.70;;;;;;;;;;5089044;28;20024;-70
2022/07/18 06:46:00;;;;;;;9.73;7.15;;;;;;;;;;5085442;28;20032;-70
2022/07/18 06:48:32;;;;;;;8.80;5.22;;;;;;;;;;5070242;28;20020;-70
2022/07/18 06:51:02;;;;;;;17.02;5.10;;;;;;;;;;5066261;28;20025;-71
2022/07/18 06:53:31;;;;;;;13.30;5.13;;;;;;;;;;5082717;28;20021;-70
2022/07/18 06:56:04;;;;;;;9.02;4.78;;;;;;;;;;5085696;28;20032;-70
2022/07/18 06:58:42;;;;;;;10.15;4.63;;;;;;;;;;5067923;28;20425;-71
2022/07/18 07:01:10;;;;;;;17.08;5.60;;;;;;;;;;5067896;28;20033;-70
2022/07/18 07:03:39;;;;;;;19.42;5.50;;;;;;;;;;5068119;28;20020;-70
2022/07/18 07:06:08;;;;;;;32.67;6.22;;;;;;;;;;5067927;28;20396;-70
2022/07/18 07:08:46;;;;;;;11.93;5.32;;;;;;;;;;5108565;27;20818;-70
2022/07/18 07:11:15;;;;;;;17.92;5.75;;;;;;;;;;5108885;28;20039;-71
2022/07/18 07:13:44;;;;;;;13.35;5.32;;;;;;;;;;5111468;28;20436;-71
2022/07/18 07:16:12;;;;;;;33.88;6.50;;;;;;;;;;5127038;27;20395;-72
2022/07/18 07:18:41;;;;;;;15.50;4.90;;;;;;;;;;5129004;28;20032;-72
2022/07/18 07:21:10;;;;;;;15.43;4.45;;;;;;;;;;5123164;27;20027;-72
2022/07/18 07:23:47;;;;;;;9.88;4.35;;;;;;;;;;5067544;28;20573;-70
2022/07/18 07:26:15;;;;;;;4.53;4.07;;;;;;;;;;5069439;28;20489;-70
2022/07/18 07:28:52;;;;;;;8.23;3.90;;;;;;;;;;5067984;28;20130;-71
2022/07/18 07:31:21;;;;;;;5.95;3.75;;;;;;;;;;5068024;28;20033;-70
2022/07/18 07:33:50;;;;;;;7.90;3.80;;;;;;;;;;5067872;28;20036;-70
2022/07/18 07:36:18;;;;;;;4.10;3.75;;;;;;;;;;5067535;28;20388;-71
2022/07/18 07:38:55;;;;;;;8.13;3.90;;;;;;;;;;5068185;28;20667;-70
2022/07/18 07:41:24;;;;;;;4.85;3.75;;;;;;;;;;5068174;28;20031;-71
2022/07/18 07:43:53;;;;;;;3.85;3.40;;;;;;;;;;5068085;28;20039;-71
2022/07/18 07:46:21;;;;;;;7.38;3.60;;;;;;;;;;5069085;28;20035;-71
2022/07/18 07:48:58;;;;;;;7.85;3.60;;;;;;;;;;5109355;27;20612;-71
2022/07/18 07:51:37;;;;;;;6.53;3.58;;;;;;;;;;5067816;28;20980;-71
2022/07/18 07:54:05;;;;;;;6.55;3.92;;;;;;;;;;5068428;28;20047;-71
2022/07/18 07:56:34;;;;;;;5.85;3.60;;;;;;;;;;5068325;28;20043;-71
2022/07/18 07:59:03;;;;;;;7.70;4.30;;;;;;;;;;5067982;28;20037;-71
2022/07/18 08:01:32;;;;;;;5.72;3.47;;;;;;;;;;5073323;28;20028;-71
2022/07/18 08:04:00;;;;;;;10.82;4.15;;;;;;;;;;5083678;28;20396;-70
2022/07/18 08:06:29;;;;;;;12.85;4.30;;;;;;;;;;5071536;28;20547;-71
2022/07/18 08:09:08;;;;;;;5.00;4.22;;;;;;;;;;5067821;28;20212;-71
2022/07/18 08:11:36;;;;;;;9.95;3.90;;;;;;;;;;5070384;28;20038;-71
2022/07/18 08:14:05;;;;;;;6.68;3.60;;;;;;;;;;5073435;28;20037;-70
2022/07/18 08:16:34;;;;;;;24.40;4.45;;;;;;;;;;5069103;28;20024;-70
2022/07/18 08:19:03;;;;;;;5.40;3.33;;;;;;;;;;5078109;28;20031;-70
2022/07/18 08:21:31;;;;;;;6.77;4.40;;;;;;;;;;5088043;28;20034;-70
2022/07/18 08:24:00;;;;;;;9.40;3.58;;;;;;;;;;5079688;28;20518;-71
2022/07/18 08:26:29;;;;;;;9.25;3.90;;;;;;;;;;5067597;28;20037;-70
2022/07/18 08:28:58;;;;;;;7.43;4.60;;;;;;;;;;5067462;28;20036;-70
2022/07/18 08:31:34;;;;;;;8.90;4.47;;;;;;;;;;5108689;27;20536;-70
2022/07/18 08:34:03;;;;;;;5.47;3.80;;;;;;;;;;5108468;28;20024;-71
2022/07/18 08:36:32;;;;;;;4.63;4.10;;;;;;;;;;5121140;28;20269;-70
2022/07/18 08:39:08;;;;;;;5.50;3.83;;;;;;;;;;5108900;27;20151;-71
2022/07/18 08:41:38;;;;;;;4.73;3.40;;;;;;;;;;5108720;28;20027;-70
2022/07/18 08:44:09;;;;;;;9.68;4.10;;;;;;;;;;5109323;28;20036;-70
2022/07/18 08:46:53;;;;;;;7.80;4.18;;;;;;;;;;5085249;28;20398;-70
2022/07/18 08:49:31;;;;;;;11.45;3.60;;;;;;;;;;5089732;27;20431;-70
2022/07/18 08:51:59;;;;;;;8.55;3.53;;;;;;;;;;5089131;28;20022;-71
2022/07/18 08:54:28;;;;;;;6.57;4.13;;;;;;;;;;5100371;28;20510;-71
2022/07/18 08:57:05;;;;;;;6.63;4.20;;;;;;;;;;5087027;28;20164;-71
2022/07/18 08:59:41;;;;;;;6.68;3.88;;;;;;;;;;5069219;28;20542;-71
2022/07/18 09:02:18;;;;;;;6.53;3.70;;;;;;;;;;5068738;28;20161;-71
2022/07/18 09:04:47;;;;;;;25.03;5.40;;;;;;;;;;5068920;28;20027;-71
2022/07/18 09:07:25;;;;;;;19.73;4.18;;;;;;;;;;5074917;27;20534;-71
2022/07/18 09:09:57;;;;;;;4.15;3.53;;;;;;;;;;5068782;28;20028;-71
2022/07/18 09:12:34;;;;;;;4.38;3.60;;;;;;;;;;5068890;28;20421;-71
2022/07/18 09:15:07;;;;;;;7.47;3.65;;;;;;;;;;5084451;28;20209;-71
2022/07/18 09:17:46;;;;;;;4.32;3.05;;;;;;;;;;5075421;28;20393;-71
2022/07/18 09:20:15;;;;;;;6.22;3.40;;;;;;;;;;5089791;28;20028;-71
2022/07/18 09:22:52;;;;;;;5.00;3.50;;;;;;;;;;5109582;27;20377;-71
2022/07/18 09:25:24;;;;;;;5.25;3.50;;;;;;;;;;5109750;28;20023;-71
2022/07/18 09:28:09;;;;;;;4.47;3.53;;;;;;;;;;5077960;28;20393;-71
2022/07/18 09:30:38;;;;;;;3.22;2.92;;;;;;;;;;5086694;28;20505;-71
2022/07/18 09:33:08;;;;;;;9.57;3.83;;;;;;;;;;5082366;28;20033;-71
2022/07/18 09:35:44;;;;;;;4.78;3.10;;;;;;;;;;5059565;28;20412;-71
2022/07/18 09:38:29;;;;;;;5.95;3.05;;;;;;;;;;5068022;28;20143;-71
2022/07/18 09:41:11;;;;;;;7.45;2.78;;;;;;;;;;5087389;27;20423;-71
2022/07/18 09:43:47;;;;;;;4.75;2.30;;;;;;;;;;5108854;27;20388;-72
2022/07/18 09:46:26;;;;;;;8.07;3.08;;;;;;;;;;5068278;28;20385;-71
2022/07/18 09:49:10;;;;;;;4.28;2.20;;;;;;;;;;5068016;28;20035;-71
2022/07/18 09:52:02;;;;;;;6.72;2.60;;;;;;;;;;5077428;28;21000;-71
2022/07/18 09:54:44;;;;;;;6.75;2.75;;;;;;;;;;5066776;28;20399;-71
2022/07/18 09:57:28;;;;;;;7.95;2.95;;;;;;;;;;5078164;28;20395;-70
2022/07/18 09:59:57;;;;;;;9.20;2.72;;;;;;;;;;5088274;28;20038;-70
2022/07/18 10:02:39;;;;;;;4.47;2.50;;;;;;;;;;5077879;28;20420;-73
2022/07/18 10:05:20;;;;;;;8.23;2.80;;;;;;;;;;5109916;27;20733;-69
2022/07/18 10:07:48;;;;;;;4.22;2.53;;;;;;;;;;5108107;28;20491;-68
2022/07/18 10:10:18;;;;;;;6.70;2.50;;;;;;;;;;5108452;28;20038;-68
2022/07/18 10:12:46;;;;;;;2.75;2.55;;;;;;;;;;5108742;28;20027;-69
2022/07/18 10:15:15;;;;;;;7.55;2.80;;;;;;;;;;5091001;28;20046;-69
2022/07/18 10:17:44;;;;;;;3.97;2.80;;;;;;;;;;5109111;28;20028;-69
2022/07/18 10:20:13;;;;;;;3.22;2.83;;;;;;;;;;5096372;28;20032;-68
2022/07/18 10:22:42;;;;;;;9.93;2.90;;;;;;;;;;5087731;28;20061;-68
2022/07/18 10:25:22;;;;;;;4.40;2.58;;;;;;;;;;5108348;27;20418;-68
2022/07/18 10:28:07;;;;;;;5.22;2.90;;;;;;;;;;5088381;28;20389;-68
2022/07/18 10:30:44;;;;;;;4.15;2.55;;;;;;;;;;5108417;27;20870;-69
2022/07/18 10:33:31;;;;;;;6.40;3.00;;;;;;;;;;5095150;28;20024;-69
2022/07/18 10:36:10;;;;;;;5.78;2.60;;;;;;;;;;5067643;28;20948;-69
2022/07/18 10:38:40;;;;;;;6.28;2.50;;;;;;;;;;5066367;28;20052;-68
2022/07/18 10:41:17;;;;;;;2.85;2.50;;;;;;;;;;5107674;27;20422;-69
2022/07/18 10:43:46;;;;;;;2.83;2.33;;;;;;;;;;5107695;28;20028;-68
2022/07/18 10:46:22;;;;;;;3.45;2.33;;;;;;;;;;5108709;27;20624;-69
2022/07/18 10:48:59;;;;;;;2.50;2.28;;;;;;;;;;5068135;28;20573;-69
2022/07/18 10:51:36;;;;;;;5.28;2.42;;;;;;;;;;5066712;28;20134;-69
2022/07/18 10:54:12;;;;;;;6.18;2.42;;;;;;;;;;5107207;27;20133;-71
2022/07/18 10:56:41;;;;;;;3.40;2.50;;;;;;;;;;5108079;28;20028;-67
2022/07/18 10:59:18;;;;;;;3.05;2.17;;;;;;;;;;5108735;27;20133;-70
2022/07/18 11:01:48;;;;;;;4.80;2.90;;;;;;;;;;5108977;28;20024;-71
2022/07/18 11:04:24;;;;;;;5.82;3.00;;;;;;;;;;5108878;28;20042;-68
2022/07/18 11:07:15;;;;;;;7.50;2.90;;;;;;;;;;5108632;27;20392;-70
2022/07/18 11:09:44;;;;;;;12.70;3.00;;;;;;;;;;5108910;28;20031;-71
2022/07/18 11:12:23;;;;;;;3.33;2.60;;;;;;;;;;5108693;27;20392;-70
2022/07/18 11:15:06;;;;;;;3.92;2.65;;;;;;;;;;5108495;28;20373;-68
2022/07/18 11:18:03;;;;;;;8.88;2.70;;;;;;;;;;5068278;28;20391;-67
2022/07/18 11:20:41;;;;;;;8.10;2.75;;;;;;;;;;5068204;28;20386;-70
2022/07/18 11:23:20;;;;;;;7.85;2.80;;;;;;;;;;5108844;27;20441;-68
2022/07/18 11:25:52;;;;;;;16.45;3.38;;;;;;;;;;5110237;28;20024;-71
2022/07/18 11:28:28;;;;;;;4.72;2.97;;;;;;;;;;5069442;28;20818;-71
2022/07/18 11:31:08;;;;;;;4.65;2.40;;;;;;;;;;5073473;28;20028;-71
2022/07/18 11:33:47;;;;;;;3.30;2.72;;;;;;;;;;5068977;28;20428;-70
2022/07/18 11:36:30;;;;;;;5.13;2.70;;;;;;;;;;5116628;27;20387;-68
2022/07/18 11:39:00;;;;;;;6.70;3.35;;;;;;;;;;5109692;28;20031;-68
2022/07/18 11:41:40;;;;;;;5.90;2.58;;;;;;;;;;5089046;27;20746;-69
2022/07/18 11:44:21;;;;;;;12.38;2.83;;;;;;;;;;5069219;28;20404;-69
2022/07/18 11:47:05;;;;;;;19.75;3.40;;;;;;;;;;5109454;27;20355;-71
2022/07/18 11:49:35;;;;;;;5.60;2.60;;;;;;;;;;5100612;28;20534;-69
2022/07/18 11:52:12;;;;;;;5.57;2.70;;;;;;;;;;5067884;28;20417;-69
2022/07/18 11:54:40;;;;;;;6.95;2.55;;;;;;;;;;5061694;28;20029;-69
2022/07/18 11:57:09;;;;;;;6.40;2.50;;;;;;;;;;5048024;28;20041;-69
2022/07/18 11:59:44;;;;;;;11.32;2.70;;;;;;;;;;5052057;28;20392;-72
2022/07/18 12:02:40;;;;;;;5.10;2.58;;;;;;;;;;5088563;27;20390;-73
2022/07/18 12:05:32;;;;;;;3.92;2.60;;;;;;;;;;5087517;27;20445;-72
2022/07/18 12:08:29;;;;;;;6.65;2.60;;;;;;;;;;5067344;28;20445;-71
2022/07/18 12:11:20;;;;;;;5.75;2.70;;;;;;;;;;5067826;28;20037;-71
2022/07/18 12:13:58;;;;;;;3.05;2.70;;;;;;;;;;5088143;27;20390;-71
2022/07/18 12:16:36;;;;;;;10.93;2.80;;;;;;;;;;5067990;28;20630;-71
2022/07/18 12:19:10;;;;;;;6.78;2.33;;;;;;;;;;5067901;28;20032;-70
2022/07/18 12:21:49;;;;;;;4.95;3.03;;;;;;;;;;5068031;28;20035;-69
2022/07/18 12:24:32;;;;;;;2.70;2.40;;;;;;;;;;5129087;27;20100;-70
2022/07/18 12:27:12;;;;;;;3.92;2.40;;;;;;;;;;5128377;28;20476;-71
2022/07/18 12:29:56;;;;;;;3.75;2.70;;;;;;;;;;5126672;28;20039;-71
2022/07/18 12:32:42;;;;;;;4.20;2.67;;;;;;;;;;5067781;28;20433;-71
2022/07/18 12:35:23;;;;;;;6.45;2.80;;;;;;;;;;5106939;27;20400;-71
2022/07/18 12:38:08;;;;;;;5.72;2.47;;;;;;;;;;5108403;27;20935;-71
2022/07/18 12:40:52;;;;;;;7.85;2.80;;;;;;;;;;5067861;28;20565;-72
2022/07/18 12:43:31;;;;;;;5.55;3.08;;;;;;;;;;5073006;28;20472;-71
2022/07/18 12:46:11;;;;;;;8.02;2.75;;;;;;;;;;5059915;28;20794;-72
2022/07/18 12:48:42;;;;;;;6.25;3.17;;;;;;;;;;5047702;28;20497;-72
2022/07/18 12:51:11;;;;;;;5.72;2.30;;;;;;;;;;5047703;28;20400;-72
2022/07/18 12:53:48;;;;;;;3.60;2.60;;;;;;;;;;5068201;28;20387;-71
2022/07/18 12:56:17;;;;;;;5.95;2.70;;;;;;;;;;5079560;28;20036;-72
2022/07/18 12:58:56;;;;;;;4.68;3.00;;;;;;;;;;5068039;28;20931;-71
2022/07/18 13:01:24;;;;;;;7.00;2.95;;;;;;;;;;5068230;28;20031;-71
2022/07/18 13:03:53;;;;;;;3.60;2.55;;;;;;;;;;5067733;28;20028;-71
2022/07/18 13:06:22;;;;;;;6.60;2.80;;;;;;;;;;5067824;28;20396;-70
2022/07/18 13:08:51;;;;;;;4.97;3.00;;;;;;;;;;5067689;28;20388;-72
2022/07/18 13:11:19;;;;;;;4.45;2.83;;;;;;;;;;5067594;28;20036;-71
2022/07/18 13:13:56;;;;;;;5.97;2.70;;;;;;;;;;5068074;28;20192;-72
2022/07/18 13:16:25;;;;;;;5.57;3.13;;;;;;;;;;5068114;28;20025;-71
2022/07/18 13:19:03;;;;;;;5.63;2.50;;;;;;;;;;5066865;28;20387;-72
2022/07/18 13:21:32;;;;;;;5.05;2.58;;;;;;;;;;5067909;28;20029;-71
2022/07/18 13:24:01;;;;;;;5.38;2.67;;;;;;;;;;5067990;28;20032;-71
2022/07/18 13:26:29;;;;;;;6.78;2.80;;;;;;;;;;5067790;28;20799;-72
2022/07/18 13:28:58;;;;;;;2.58;2.38;;;;;;;;;;5067666;28;20037;-72
2022/07/18 13:31:36;;;;;;;8.32;2.67;;;;;;;;;;5108647;27;20186;-72
2022/07/18 13:34:13;;;;;;;7.78;2.55;;;;;;;;;;5088452;27;20439;-72
2022/07/18 13:36:42;;;;;;;2.78;2.53;;;;;;;;;;5087768;28;20391;-72
2022/07/18 13:39:19;;;;;;;5.28;2.65;;;;;;;;;;5067915;28;20142;-72
2022/07/18 13:41:50;;;;;;;4.90;2.40;;;;;;;;;;5057897;28;20021;-71
2022/07/18 13:44:29;;;;;;;4.60;2.33;;;;;;;;;;5067536;28;20445;-72
2022/07/18 13:46:58;;;;;;;6.82;2.60;;;;;;;;;;5068229;28;20035;-72
2022/07/18 13:49:27;;;;;;;7.22;2.35;;;;;;;;;;5067927;28;20044;-71
2022/07/18 13:51:55;;;;;;;5.50;2.20;;;;;;;;;;5068095;28;20028;-72
2022/07/18 13:54:24;;;;;;;5.00;2.65;;;;;;;;;;5067156;28;20033;-72
2022/07/18 13:56:53;;;;;;;2.85;2.22;;;;;;;;;;5075761;28;20024;-71
2022/07/18 13:59:31;;;;;;;3.90;2.42;;;;;;;;;;5067932;28;20390;-71
2022/07/18 14:02:00;;;;;;;5.40;2.42;;;;;;;;;;5067537;28;20492;-71
2022/07/18 14:04:29;;;;;;;7.97;2.42;;;;;;;;;;5068172;28;20039;-71
2022/07/18 14:06:57;;;;;;;6.53;2.42;;;;;;;;;;5068170;28;20021;-71
2022/07/18 14:09:26;;;;;;;4.38;2.25;;;;;;;;;;5067737;28;20024;-71
2022/07/18 14:12:05;;;;;;;4.18;2.40;;;;;;;;;;5108534;27;20429;-71
2022/07/18 14:14:44;;;;;;;5.55;2.25;;;;;;;;;;5067297;28;20779;-71
2022/07/18 14:17:13;;;;;;;3.35;2.30;;;;;;;;;;5067628;28;20028;-71
2022/07/18 14:19:42;;;;;;;4.35;2.42;;;;;;;;;;5068373;28;20037;-71
2022/07/18 14:22:12;;;;;;;9.75;2.60;;;;;;;;;;5068284;28;20029;-71
2022/07/18 14:24:49;;;;;;;4.13;2.63;;;;;;;;;;5068429;28;20468;-71
2022/07/18 14:27:25;;;;;;;3.17;2.40;;;;;;;;;;5068242;28;20135;-71
2022/07/18 14:30:03;;;;;;;6.40;2.40;;;;;;;;;;5067722;28;20134;-71
2022/07/18 14:32:32;;;;;;;5.82;2.60;;;;;;;;;;5067918;28;20035;-71
2022/07/18 14:35:09;;;;;;;3.75;2.40;;;;;;;;;;5108818;27;20186;-71
2022/07/18 14:37:38;;;;;;;4.70;3.00;;;;;;;;;;5109774;28;20036;-71
2022/07/18 14:40:07;;;;;;;4.30;2.55;;;;;;;;;;5109053;28;20026;-71
2022/07/18 14:42:36;;;;;;;2.53;2.30;;;;;;;;;;5108588;28;20027;-71
2022/07/18 14:45:06;;;;;;;6.68;2.83;;;;;;;;;;5108755;28;20024;-71
2022/07/18 14:47:35;;;;;;;;;;;;;;;;;;5109387;28;20028;-71
2022/07/18 14:50:15;;;;;;;8.18;2.65;;;;;;;;;;5088339;27;20409;-71
2022/07/18 14:52:44;;;;;;;6.68;2.60;;;;;;;;;;5085293;28;20036;-71
2022/07/18 14:55:12;;;;;;;6.38;2.50;;;;;;;;;;5086636;28;20042;-72
2022/07/18 14:57:41;;;;;;;3.08;2.50;;;;;;;;;;5088311;28;20024;-71
2022/07/18 15:00:10;;;;;;;4.22;2.50;;;;;;;;;;5087783;28;20040;-71
2022/07/18 15:02:39;;;;;;;7.28;2.60;;;;;;;;;;5087940;28;20032;-71
2022/07/18 15:05:08;;;;;;;3.45;2.58;;;;;;;;;;5088611;28;20039;-71
2022/07/18 15:07:46;;;;;;;5.18;2.50;;;;;;;;;;5066292;28;20440;-71
2022/07/18 15:10:15;;;;;;;2.80;2.28;;;;;;;;;;5068538;28;20031;-71
2022/07/18 15:12:43;;;;;;;4.82;2.30;;;;;;;;;;5080553;28;20028;-71
2022/07/18 15:15:12;;;;;;;3.28;2.17;;;;;;;;;;5067496;28;20380;-71
2022/07/18 15:17:41;;;;;;;4.72;2.78;;;;;;;;;;5069056;28;20028;-71
2022/07/18 15:20:21;;;;;;;5.70;2.83;;;;;;;;;;5080374;28;20394;-71